Accueil
METAR-TAF:

METAR-TAF

Aéroports :

Aéroport de Londres-City

Londres, Angleterre

latitude: 51-30N, longitude: 000-03E, altitude: 5 m

Observation

Le bulletin a été fait il y a 37 minutes, à 10:50 UTC
Vent 3 kt de direction variable
Température 15°C
Humidité 67%
Pression 1032 hPa
Visibilité 10 km ou plus
pluie faible

METAR: EGLC 201050Z AUTO VRB03KT 9999 -RA NCD 15/09 Q1032

Heure: 12:27 (11:27 UTC)

Prévision

Le bulletin a été fait il y a 3 heures et 28 minutes, à 07:59 UTC
Prévision valable du 20 à 09 UTC au 20 à 12 UTC
Vent 3 kt de ouest/sud-ouest
Visibilité 10 km ou plus
pas de nuages en-dessous de 1500 mètres et pas de cumulonimbus.

TAF: EGLC 200759Z 2009/2012 25003KT CAVOK

Observations et prévisions météorologiques de plus de 4000 aéroports (messages METAR et TAF).

Les stations disponibles sont représentées par des disques jaunes et rouges sur la carte.

Passer la souris dessus pour voir le nom de la station.

Cliquer dessus pour voir les observations et prévisions météorologiques.

Pour changer de carte: cliquez sur les boutons verts avec une croix noire pour zoomer, sur le bouton vert avec un tiret pour effectuer un zoom arrière, ou sur les flèches vertes pour les cartes adjacentes.


METAR-TAF: